createdAt,value
2017-12-24T00:00:30.983Z,9.68
2017-12-24T00:01:36.973Z,11.60
2017-12-24T00:02:43.182Z,9.93
2017-12-24T00:03:49.105Z,13.93
2017-12-24T00:04:55.455Z,9.75
2017-12-24T00:06:01.728Z,9.70
2017-12-24T00:07:07.977Z,10.73
2017-12-24T00:08:14.479Z,11.40
2017-12-24T00:09:26.393Z,11.60
2017-12-24T00:10:32.702Z,11.48
2017-12-24T00:11:39.995Z,11.38
2017-12-24T00:12:46.217Z,10.65
2017-12-24T00:13:52.520Z,11.38
2017-12-24T00:14:58.858Z,10.90
2017-12-24T00:16:05.079Z,13.48
2017-12-24T00:17:11.278Z,12.80
2017-12-24T00:18:17.525Z,14.35
2017-12-24T00:19:23.776Z,11.65
2017-12-24T00:20:30.919Z,11.88
2017-12-24T00:21:37.523Z,11.73
2017-12-24T00:22:43.796Z,11.48
2017-12-24T00:23:49.686Z,11.93
2017-12-24T00:24:55.953Z,11.68
2017-12-24T00:26:02.152Z,13.18
2017-12-24T00:27:08.394Z,11.50
2017-12-24T00:28:14.620Z,12.48
2017-12-24T00:29:20.861Z,12.30
2017-12-24T00:30:27.133Z,12.45
2017-12-24T00:31:33.365Z,13.10
2017-12-24T00:32:39.618Z,13.18
2017-12-24T00:33:45.821Z,12.60
2017-12-24T00:34:52.864Z,12.10
2017-12-24T00:35:59.097Z,12.63
2017-12-24T00:37:05.351Z,12.88
2017-12-24T00:38:11.630Z,12.23
2017-12-24T00:39:17.815Z,12.93
2017-12-24T00:40:24.011Z,14.07
2017-12-24T00:41:30.270Z,12.85
2017-12-24T00:42:36.526Z,13.25
2017-12-24T00:43:42.743Z,12.73
2017-12-24T00:44:48.996Z,13.40
2017-12-24T00:45:55.205Z,12.77
2017-12-24T00:47:02.312Z,13.52
2017-12-24T00:48:09.450Z,13.00
2017-12-24T00:49:15.652Z,12.77
2017-12-24T00:50:21.897Z,13.40
2017-12-24T00:51:28.162Z,13.60
2017-12-24T00:52:34.159Z,12.93
2017-12-24T00:53:40.437Z,14.57
2017-12-24T00:54:46.677Z,13.25
2017-12-24T00:55:52.932Z,13.90
2017-12-24T00:56:59.125Z,12.25
2017-12-24T00:58:05.428Z,14.40
2017-12-24T00:59:11.627Z,13.57
2017-12-24T01:00:17.850Z,12.40
2017-12-24T01:01:23.778Z,15.27
2017-12-24T01:02:30.112Z,13.10
2017-12-24T01:03:36.347Z,12.15
2017-12-24T01:04:42.659Z,13.60
2017-12-24T01:05:49.528Z,13.15
2017-12-24T01:06:56.709Z,13.13
2017-12-24T01:08:02.636Z,13.02
2017-12-24T01:09:08.915Z,12.60
2017-12-24T01:10:15.107Z,12.40
2017-12-24T01:11:22.216Z,13.32
2017-12-24T01:12:29.359Z,14.00
2017-12-24T01:13:36.468Z,13.43
2017-12-24T01:14:42.855Z,14.40
2017-12-24T01:15:49.171Z,13.35
2017-12-24T01:16:55.488Z,11.90
2017-12-24T01:18:06.615Z,14.32
2017-12-24T01:19:12.854Z,13.27
2017-12-24T01:20:19.095Z,13.57
2017-12-24T01:21:25.357Z,15.02
2017-12-24T01:22:31.622Z,13.62
2017-12-24T01:23:38.778Z,12.98
2017-12-24T01:24:45.001Z,13.65
2017-12-24T01:25:51.303Z,13.35
2017-12-24T01:26:57.490Z,14.90
2017-12-24T01:28:03.740Z,13.95
2017-12-24T01:29:09.938Z,13.60
2017-12-24T01:30:16.147Z,15.93
2017-12-24T01:31:22.394Z,13.45
2017-12-24T01:32:29.566Z,13.23
2017-12-24T01:33:35.772Z,12.45
2017-12-24T01:34:41.729Z,13.75
2017-12-24T01:35:48.000Z,13.00
2017-12-24T01:36:54.243Z,12.73
2017-12-24T01:38:00.531Z,14.57
2017-12-24T01:39:06.444Z,11.48
2017-12-24T01:40:12.714Z,12.68
2017-12-24T01:41:18.953Z,13.88
2017-12-24T01:42:26.156Z,12.25
2017-12-24T01:43:32.448Z,12.02
2017-12-24T01:44:38.630Z,12.73
2017-12-24T01:45:45.053Z,12.77
2017-12-24T01:46:52.174Z,11.95
2017-12-24T01:47:58.155Z,12.48
2017-12-24T01:49:04.365Z,13.35
2017-12-24T01:50:10.581Z,11.82
2017-12-24T01:51:16.835Z,13.77
2017-12-24T01:52:23.120Z,11.73
2017-12-24T01:53:29.386Z,12.02
2017-12-24T01:54:35.667Z,11.27
2017-12-24T01:55:41.977Z,12.20
2017-12-24T01:56:49.803Z,10.80
2017-12-24T01:57:56.112Z,12.05
2017-12-24T01:59:02.380Z,11.63
2017-12-24T02:00:08.602Z,11.88
2017-12-24T02:01:14.590Z,12.60
2017-12-24T02:02:19.467Z,12.05
2017-12-24T02:03:25.755Z,11.88
2017-12-24T02:04:31.994Z,11.43
2017-12-24T02:05:37.941Z,11.48
2017-12-24T02:06:43.939Z,10.18
2017-12-24T02:07:50.130Z,11.07
2017-12-24T02:08:56.364Z,10.30
2017-12-24T02:10:02.655Z,9.80
2017-12-24T02:11:08.828Z,11.05
2017-12-24T02:12:14.778Z,11.30
2017-12-24T02:13:21.049Z,10.73
2017-12-24T02:14:31.967Z,10.70
2017-12-24T02:15:42.145Z,10.38
2017-12-24T02:16:48.416Z,11.02
2017-12-24T02:17:54.766Z,11.23
2017-12-24T02:19:00.954Z,13.80
2017-12-24T02:20:07.159Z,10.15
2017-12-24T02:21:13.055Z,9.77
2017-12-24T02:22:19.033Z,10.52
2017-12-24T02:23:24.973Z,10.75
2017-12-24T02:24:31.160Z,9.48
2017-12-24T02:25:40.260Z,11.02
2017-12-24T02:26:46.514Z,10.82
2017-12-24T02:27:52.709Z,10.30
2017-12-24T02:28:59.290Z,10.30
2017-12-24T02:30:05.167Z,10.45
2017-12-24T02:31:11.081Z,11.12
2017-12-24T02:32:17.277Z,9.38
2017-12-24T02:33:23.486Z,9.70
2017-12-24T02:34:29.718Z,10.30
2017-12-24T02:35:36.880Z,9.95
2017-12-24T02:36:43.059Z,10.15
2017-12-24T02:37:49.264Z,10.38
2017-12-24T02:38:56.399Z,9.57
2017-12-24T02:40:02.641Z,8.80
2017-12-24T02:41:09.096Z,8.50
2017-12-24T02:42:15.015Z,9.30
2017-12-24T02:43:21.238Z,8.85
2017-12-24T02:44:27.468Z,9.55
2017-12-24T02:45:33.740Z,9.23
2017-12-24T02:46:39.933Z,8.88
2017-12-24T02:47:46.188Z,9.48
2017-12-24T02:48:52.443Z,8.52
2017-12-24T02:49:58.311Z,8.57
2017-12-24T02:51:04.516Z,8.15
2017-12-24T02:52:10.765Z,8.10
2017-12-24T02:53:17.899Z,8.25
2017-12-24T02:54:24.074Z,8.48
2017-12-24T02:55:30.302Z,8.80
2017-12-24T02:56:36.562Z,8.77
2017-12-24T02:57:42.917Z,7.90
2017-12-24T02:58:49.295Z,7.40
2017-12-24T02:59:55.513Z,8.38
2017-12-24T03:01:05.638Z,9.63
2017-12-24T03:02:13.890Z,7.30
2017-12-24T03:03:20.056Z,8.70
2017-12-24T03:04:26.255Z,7.55
2017-12-24T03:05:32.494Z,8.07
2017-12-24T03:06:38.658Z,7.95
2017-12-24T03:07:44.844Z,7.55
2017-12-24T03:08:50.797Z,7.50
2017-12-24T03:09:56.701Z,7.70
2017-12-24T03:11:02.990Z,7.37
2017-12-24T03:12:09.189Z,7.57
2017-12-24T03:13:15.486Z,7.35
2017-12-24T03:14:21.746Z,9.68
2017-12-24T03:15:27.676Z,7.50
2017-12-24T03:16:33.976Z,8.20
2017-12-24T03:17:39.878Z,7.90
2017-12-24T03:18:47.931Z,8.25
2017-12-24T03:19:54.211Z,8.13
2017-12-24T03:21:00.407Z,7.28
2017-12-24T03:22:06.320Z,7.82
2017-12-24T03:23:12.258Z,6.90
2017-12-24T03:24:18.496Z,7.95
2017-12-24T03:25:24.622Z,6.72
2017-12-24T03:26:30.812Z,7.50
2017-12-24T03:27:37.010Z,8.02
2017-12-24T03:28:43.268Z,6.78
2017-12-24T03:29:49.468Z,7.97
2017-12-24T03:30:55.718Z,6.80
2017-12-24T03:32:01.670Z,7.78
2017-12-24T03:33:08.019Z,8.25
2017-12-24T03:34:14.207Z,6.85
2017-12-24T03:35:20.391Z,6.60
2017-12-24T03:36:26.582Z,7.37
2017-12-24T03:37:32.790Z,7.72
2017-12-24T03:38:39.002Z,8.38
2017-12-24T03:39:45.182Z,7.55
2017-12-24T03:40:51.386Z,6.78
2017-12-24T03:41:57.638Z,7.10
2017-12-24T03:43:03.837Z,7.10
2017-12-24T03:44:10.080Z,6.60
2017-12-24T03:45:16.271Z,6.65
2017-12-24T03:46:22.493Z,6.65
2017-12-24T03:47:28.674Z,6.87
2017-12-24T03:48:34.555Z,6.43
2017-12-24T03:49:40.894Z,6.62
2017-12-24T03:50:47.110Z,6.87
2017-12-24T03:51:53.360Z,6.50
2017-12-24T03:52:59.607Z,7.53
2017-12-24T03:54:05.804Z,6.45
2017-12-24T03:55:12.027Z,6.45
2017-12-24T03:56:18.226Z,6.68
2017-12-24T03:57:24.386Z,6.82
2017-12-24T03:58:30.601Z,6.35
2017-12-24T03:59:36.544Z,6.95
2017-12-24T04:00:42.013Z,6.25
2017-12-24T04:01:49.138Z,6.78
2017-12-24T04:02:55.395Z,5.87
2017-12-24T04:04:01.580Z,6.07
2017-12-24T04:05:07.792Z,6.32
2017-12-24T04:06:14.962Z,6.95
2017-12-24T04:07:21.187Z,6.40
2017-12-24T04:08:27.411Z,7.25
2017-12-24T04:09:33.595Z,7.47
2017-12-24T04:10:40.680Z,6.32
2017-12-24T04:11:46.919Z,6.20
2017-12-24T04:12:53.138Z,6.00
2017-12-24T04:13:59.340Z,6.10
2017-12-24T04:15:08.744Z,7.05
2017-12-24T04:16:14.987Z,5.78
2017-12-24T04:17:21.156Z,6.20
2017-12-24T04:18:27.340Z,6.28
2017-12-24T04:19:33.509Z,6.03
2017-12-24T04:20:40.303Z,4.82
2017-12-24T04:21:46.491Z,5.78
2017-12-24T04:22:52.704Z,6.07
2017-12-24T04:23:58.881Z,6.15
2017-12-24T04:25:05.097Z,6.37
2017-12-24T04:26:11.354Z,5.07
2017-12-24T04:27:17.510Z,6.45
2017-12-24T04:28:23.744Z,6.18
2017-12-24T04:29:29.986Z,5.60
2017-12-24T04:30:36.419Z,6.05
2017-12-24T04:31:43.551Z,6.40
2017-12-24T04:32:49.710Z,5.30
2017-12-24T04:33:55.958Z,5.55
2017-12-24T04:35:07.119Z,6.32
2017-12-24T04:36:13.347Z,5.32
2017-12-24T04:37:20.456Z,5.50
2017-12-24T04:38:26.758Z,5.80
2017-12-24T04:39:37.325Z,6.65
2017-12-24T04:40:44.164Z,5.90
2017-12-24T04:41:50.332Z,6.53
2017-12-24T04:42:56.186Z,6.03
2017-12-24T04:44:02.402Z,6.43
2017-12-24T04:45:08.719Z,5.90
2017-12-24T04:46:14.881Z,6.10
2017-12-24T04:47:21.111Z,6.72
2017-12-24T04:48:27.358Z,5.80
2017-12-24T04:49:33.568Z,5.60
2017-12-24T04:50:39.753Z,5.87
2017-12-24T04:51:49.598Z,5.75
2017-12-24T04:52:55.850Z,5.60
2017-12-24T04:54:02.212Z,6.68
2017-12-24T04:55:08.430Z,5.97
2017-12-24T04:56:14.605Z,5.30
2017-12-24T04:57:21.034Z,5.78
2017-12-24T04:58:27.261Z,6.47
2017-12-24T04:59:33.490Z,5.18
2017-12-24T05:00:39.663Z,6.00
2017-12-24T05:01:45.882Z,5.65
2017-12-24T05:02:52.081Z,7.37
2017-12-24T05:03:58.279Z,5.18
2017-12-24T05:05:04.461Z,6.28
2017-12-24T05:06:10.405Z,6.28
2017-12-24T05:07:16.580Z,5.45
2017-12-24T05:08:22.739Z,5.97
2017-12-24T05:09:28.921Z,5.28
2017-12-24T05:10:35.203Z,6.35
2017-12-24T05:11:41.538Z,5.97
2017-12-24T05:12:47.743Z,5.10
2017-12-24T05:13:53.932Z,5.10
2017-12-24T05:15:00.141Z,5.07
2017-12-24T05:16:06.346Z,4.70
2017-12-24T05:17:12.587Z,5.25
2017-12-24T05:18:18.829Z,5.15
2017-12-24T05:19:25.133Z,5.45
2017-12-24T05:20:31.342Z,5.50
2017-12-24T05:21:40.331Z,6.53
2017-12-24T05:22:48.119Z,5.80
2017-12-24T05:23:54.457Z,6.28
2017-12-24T05:25:02.956Z,5.62
2017-12-24T05:26:09.180Z,5.32
2017-12-24T05:27:15.348Z,5.80
2017-12-24T05:28:21.578Z,5.25
2017-12-24T05:29:27.851Z,5.15
2017-12-24T05:30:34.067Z,4.75
2017-12-24T05:31:40.254Z,5.80
2017-12-24T05:32:46.442Z,4.90
2017-12-24T05:33:52.623Z,5.10
2017-12-24T05:34:59.063Z,4.75
2017-12-24T05:36:04.935Z,5.18
2017-12-24T05:37:11.148Z,5.12
2017-12-24T05:38:17.408Z,4.75
2017-12-24T05:39:23.603Z,4.68
2017-12-24T05:40:29.823Z,4.80
2017-12-24T05:41:35.979Z,5.53
2017-12-24T05:42:42.142Z,5.40
2017-12-24T05:43:48.382Z,5.10
2017-12-24T05:44:54.595Z,5.20
2017-12-24T05:46:01.178Z,5.28
2017-12-24T05:47:07.402Z,5.05
2017-12-24T05:48:13.631Z,4.03
2017-12-24T05:49:19.809Z,4.93
2017-12-24T05:50:25.972Z,4.97
2017-12-24T05:51:32.202Z,5.70
2017-12-24T05:52:38.374Z,5.60
2017-12-24T05:53:44.889Z,4.90
2017-12-24T05:54:50.736Z,4.65
2017-12-24T05:55:56.912Z,4.80
2017-12-24T05:57:03.091Z,6.75
2017-12-24T05:58:09.282Z,4.85
2017-12-24T05:59:15.700Z,5.20
2017-12-24T06:00:21.962Z,6.28
2017-12-24T06:01:27.907Z,5.20
2017-12-24T06:02:34.176Z,7.30
2017-12-24T06:03:40.342Z,5.07
2017-12-24T06:04:46.557Z,4.07
2017-12-24T06:05:52.819Z,4.65
2017-12-24T06:06:59.031Z,4.95
2017-12-24T06:08:05.288Z,5.25
2017-12-24T06:09:11.484Z,5.12
2017-12-24T06:10:17.682Z,5.10
2017-12-24T06:11:23.849Z,5.00
2017-12-24T06:12:30.078Z,5.53
2017-12-24T06:13:36.301Z,5.00
2017-12-24T06:14:42.605Z,4.28
2017-12-24T06:15:49.060Z,4.85
2017-12-24T06:16:55.737Z,5.22
2017-12-24T06:18:01.967Z,5.12
2017-12-24T06:19:08.226Z,5.22
2017-12-24T06:20:14.657Z,4.80
2017-12-24T06:21:21.154Z,4.72
2017-12-24T06:22:28.341Z,5.18
2017-12-24T06:23:35.316Z,5.28
2017-12-24T06:24:41.920Z,5.93
2017-12-24T06:25:48.521Z,5.55
2017-12-24T06:26:55.138Z,5.12
2017-12-24T06:28:01.723Z,4.62
2017-12-24T06:29:08.371Z,5.90
2017-12-24T06:30:14.837Z,5.00
2017-12-24T06:31:21.240Z,4.82
2017-12-24T06:32:27.449Z,4.93
2017-12-24T06:33:33.718Z,6.00
2017-12-24T06:34:39.996Z,4.82
2017-12-24T06:35:46.328Z,5.20
2017-12-24T06:36:52.647Z,5.20
2017-12-24T06:37:59.285Z,4.85
2017-12-24T06:39:05.812Z,5.10
2017-12-24T06:40:12.018Z,5.30
2017-12-24T06:41:18.520Z,4.55
2017-12-24T06:42:24.722Z,4.78
2017-12-24T06:43:30.935Z,5.70
2017-12-24T06:44:36.920Z,4.43
2017-12-24T06:45:43.192Z,5.37
2017-12-24T06:46:49.347Z,5.12
2017-12-24T06:47:55.648Z,5.25
2017-12-24T06:49:01.807Z,5.10
2017-12-24T06:50:08.073Z,5.15
2017-12-24T06:51:14.304Z,5.43
2017-12-24T06:52:20.516Z,5.37
2017-12-24T06:53:26.760Z,5.43
2017-12-24T06:54:32.954Z,5.50
2017-12-24T06:55:39.163Z,6.18
2017-12-24T06:56:45.367Z,5.05
2017-12-24T06:57:51.608Z,4.82
2017-12-24T06:58:57.846Z,5.50
2017-12-24T07:00:03.759Z,4.87
2017-12-24T07:01:09.892Z,6.07
2017-12-24T07:02:16.093Z,4.60
2017-12-24T07:03:22.300Z,4.72
2017-12-24T07:04:28.621Z,4.78
2017-12-24T07:05:34.771Z,5.20
2017-12-24T07:06:40.877Z,4.62
2017-12-24T07:07:47.086Z,4.95
2017-12-24T07:08:53.319Z,5.05
2017-12-24T07:10:01.379Z,4.70
2017-12-24T07:11:07.691Z,5.30
2017-12-24T07:12:13.862Z,5.20
2017-12-24T07:13:20.122Z,4.55
2017-12-24T07:14:26.390Z,5.55
2017-12-24T07:15:33.863Z,4.97
2017-12-24T07:16:41.050Z,5.30
2017-12-24T07:17:54.560Z,4.70
2017-12-24T07:19:01.698Z,5.30
2017-12-24T07:20:08.349Z,5.68
2017-12-24T07:21:15.215Z,4.20
2017-12-24T07:22:22.583Z,4.85
2017-12-24T07:23:29.436Z,4.60
2017-12-24T07:24:35.651Z,5.03
2017-12-24T07:25:41.912Z,5.75
2017-12-24T07:26:48.458Z,6.05
2017-12-24T07:27:54.782Z,6.85
2017-12-24T07:29:01.086Z,5.78
2017-12-24T07:30:07.336Z,5.12
2017-12-24T07:31:13.627Z,4.85
2017-12-24T07:32:19.822Z,5.28
2017-12-24T07:33:26.000Z,5.35
2017-12-24T07:34:32.239Z,5.37
2017-12-24T07:35:38.454Z,4.57
2017-12-24T07:36:44.838Z,4.97
2017-12-24T07:37:51.011Z,5.22
2017-12-24T07:38:57.376Z,4.75
2017-12-24T07:40:03.611Z,4.87
2017-12-24T07:41:09.851Z,9.38
2017-12-24T07:42:16.153Z,4.87
2017-12-24T07:43:22.399Z,5.75
2017-12-24T07:44:28.593Z,5.60
2017-12-24T07:45:34.615Z,5.62
2017-12-24T07:46:40.954Z,5.40
2017-12-24T07:47:47.181Z,5.18
2017-12-24T07:48:53.446Z,5.20
2017-12-24T07:49:59.851Z,5.70
2017-12-24T07:51:06.073Z,4.87
2017-12-24T07:52:13.174Z,4.90
2017-12-24T07:53:19.434Z,5.10
2017-12-24T07:54:25.740Z,5.40
2017-12-24T07:55:32.867Z,6.87
2017-12-24T07:56:40.082Z,5.43
2017-12-24T07:57:46.253Z,5.10
2017-12-24T07:58:52.749Z,5.37
2017-12-24T07:59:58.951Z,5.80
2017-12-24T08:01:05.252Z,5.03
2017-12-24T08:02:11.550Z,5.53
2017-12-24T08:03:18.243Z,5.12
2017-12-24T08:04:24.553Z,4.90
2017-12-24T08:05:30.776Z,5.37
2017-12-24T08:06:37.269Z,5.20
2017-12-24T08:07:44.029Z,4.90
2017-12-24T08:08:50.568Z,5.18
2017-12-24T08:09:57.231Z,4.57
2017-12-24T08:11:03.442Z,5.18
2017-12-24T08:12:11.007Z,4.80
2017-12-24T08:13:17.901Z,5.97
2017-12-24T08:14:24.161Z,6.00
2017-12-24T08:15:30.371Z,4.50
2017-12-24T08:16:36.580Z,5.40
2017-12-24T08:17:42.805Z,4.87
2017-12-24T08:18:49.005Z,5.12
2017-12-24T08:19:55.247Z,5.12
2017-12-24T08:21:02.207Z,5.03
2017-12-24T08:22:08.498Z,4.62
2017-12-24T08:23:14.767Z,5.05
2017-12-24T08:24:25.048Z,5.12
2017-12-24T08:25:31.251Z,4.80
2017-12-24T08:26:37.444Z,4.95
2017-12-24T08:27:43.665Z,4.65
2017-12-24T08:28:49.831Z,5.30
2017-12-24T08:29:56.147Z,5.85
2017-12-24T08:31:02.332Z,4.50
2017-12-24T08:32:13.620Z,6.25
2017-12-24T08:33:19.860Z,4.10
2017-12-24T08:34:26.012Z,5.05
2017-12-24T08:35:32.376Z,5.22
2017-12-24T08:36:41.610Z,5.55
2017-12-24T08:37:47.790Z,6.68
2017-12-24T08:38:54.003Z,5.05
2017-12-24T08:40:00.233Z,4.35
2017-12-24T08:41:06.530Z,5.57
2017-12-24T08:42:12.792Z,6.20
2017-12-24T08:43:19.047Z,5.05
2017-12-24T08:44:25.314Z,4.70
2017-12-24T08:45:31.526Z,5.03
2017-12-24T08:46:37.758Z,3.65
2017-12-24T08:47:43.988Z,5.20
2017-12-24T08:48:49.809Z,5.03
2017-12-24T08:49:56.072Z,3.97
2017-12-24T08:51:02.292Z,4.62
2017-12-24T08:52:09.419Z,4.25
2017-12-24T08:53:22.478Z,4.40
2017-12-24T08:54:33.839Z,3.97
2017-12-24T08:55:40.017Z,4.35
2017-12-24T08:56:46.276Z,4.90
2017-12-24T08:57:52.468Z,4.50
2017-12-24T08:58:58.784Z,4.30
2017-12-24T09:00:04.987Z,4.43
2017-12-24T09:01:11.192Z,4.45
2017-12-24T09:02:17.399Z,4.15
2017-12-24T09:03:23.599Z,4.32
2017-12-24T09:04:29.823Z,4.20
2017-12-24T09:05:36.029Z,4.15
2017-12-24T09:06:42.253Z,4.40
2017-12-24T09:07:48.449Z,4.12
2017-12-24T09:08:54.679Z,3.92
2017-12-24T09:10:11.170Z,4.37
2017-12-24T09:11:21.740Z,4.20
2017-12-24T09:12:28.662Z,4.60
2017-12-24T09:13:34.972Z,5.00
2017-12-24T09:14:41.184Z,4.05
2017-12-24T09:15:47.469Z,4.32
2017-12-24T09:16:53.715Z,3.50
2017-12-24T09:17:59.964Z,4.35
2017-12-24T09:19:06.220Z,3.72
2017-12-24T09:20:12.380Z,4.53
2017-12-24T09:21:18.614Z,3.90
2017-12-24T09:22:24.672Z,4.35
2017-12-24T09:23:30.874Z,3.80
2017-12-24T09:24:37.127Z,5.93
2017-12-24T09:25:43.534Z,3.50
2017-12-24T09:26:49.847Z,4.43
2017-12-24T09:28:00.189Z,3.65
2017-12-24T09:29:06.436Z,3.05
2017-12-24T09:30:12.615Z,3.40
2017-12-24T09:31:18.959Z,4.10
2017-12-24T09:32:25.209Z,3.92
2017-12-24T09:33:31.483Z,4.78
2017-12-24T09:34:37.732Z,3.60
2017-12-24T09:35:43.918Z,4.87
2017-12-24T09:36:50.161Z,4.12
2017-12-24T09:37:56.342Z,3.10
2017-12-24T09:39:02.262Z,3.90
2017-12-24T09:40:08.229Z,3.75
2017-12-24T09:41:14.410Z,3.65
2017-12-24T09:42:20.706Z,5.47
2017-12-24T09:43:26.908Z,5.53
2017-12-24T09:44:33.158Z,3.80
2017-12-24T09:45:39.360Z,3.60
2017-12-24T09:46:45.542Z,4.25
2017-12-24T09:47:51.900Z,3.42
2017-12-24T09:48:58.164Z,3.30
2017-12-24T09:50:04.223Z,3.25
2017-12-24T09:51:13.739Z,3.50
2017-12-24T09:52:19.986Z,4.25
2017-12-24T09:53:26.304Z,3.20
2017-12-24T09:54:32.549Z,3.62
2017-12-24T09:55:38.743Z,3.50
2017-12-24T09:56:44.967Z,3.67
2017-12-24T09:57:51.303Z,2.70
2017-12-24T09:58:57.728Z,3.25
2017-12-24T10:00:03.951Z,3.83
2017-12-24T10:01:15.354Z,4.57
2017-12-24T10:02:21.643Z,3.87
2017-12-24T10:03:27.874Z,3.55
2017-12-24T10:04:34.256Z,2.78
2017-12-24T10:05:40.434Z,3.20
2017-12-24T10:06:46.651Z,2.97
2017-12-24T10:07:53.001Z,3.55
2017-12-24T10:08:59.212Z,3.80
2017-12-24T10:10:06.055Z,3.65
2017-12-24T10:11:12.277Z,3.85
2017-12-24T10:12:18.521Z,3.20
2017-12-24T10:13:24.748Z,3.30
2017-12-24T10:14:31.742Z,3.55
2017-12-24T10:15:40.245Z,3.20
2017-12-24T10:16:48.768Z,3.58
2017-12-24T10:17:56.324Z,2.90
2017-12-24T10:19:04.005Z,5.62
2017-12-24T10:20:11.444Z,3.70
2017-12-24T10:21:19.626Z,3.42
2017-12-24T10:22:27.534Z,3.20
2017-12-24T10:23:35.890Z,3.05
2017-12-24T10:24:43.763Z,3.80
2017-12-24T10:25:52.754Z,3.37
2017-12-24T10:27:00.345Z,3.50
2017-12-24T10:28:07.660Z,3.12
2017-12-24T10:29:15.113Z,3.15
2017-12-24T10:30:22.203Z,3.08
2017-12-24T10:31:29.708Z,4.75
2017-12-24T10:32:38.310Z,3.05
2017-12-24T10:33:45.217Z,3.08
2017-12-24T10:34:52.773Z,3.25
2017-12-24T10:35:59.974Z,4.20
2017-12-24T10:37:08.205Z,3.00
2017-12-24T10:38:15.368Z,3.10
2017-12-24T10:39:22.829Z,3.10
2017-12-24T10:40:29.933Z,2.85
2017-12-24T10:41:37.430Z,3.22
2017-12-24T10:42:44.630Z,2.97
2017-12-24T10:43:52.328Z,3.08
2017-12-24T10:44:59.580Z,2.75
2017-12-24T10:46:06.526Z,2.83
2017-12-24T10:47:13.630Z,2.50
2017-12-24T10:48:21.720Z,2.70
2017-12-24T10:49:29.564Z,2.00
2017-12-24T10:50:36.660Z,3.12
2017-12-24T10:51:43.705Z,2.47
2017-12-24T10:52:50.793Z,2.72
2017-12-24T10:53:58.056Z,2.72
2017-12-24T10:55:05.341Z,3.40
2017-12-24T10:56:13.232Z,2.67
2017-12-24T10:57:20.372Z,3.40
2017-12-24T10:58:27.891Z,3.03
2017-12-24T10:59:34.623Z,2.40
2017-12-24T11:00:41.985Z,2.60
2017-12-24T11:01:49.283Z,2.78
2017-12-24T11:02:56.719Z,2.45
2017-12-24T11:04:03.813Z,2.78
2017-12-24T11:05:10.804Z,2.90
2017-12-24T11:06:18.235Z,2.90
2017-12-24T11:07:25.508Z,2.25
2017-12-24T11:08:32.600Z,2.37
2017-12-24T11:09:39.796Z,2.72
2017-12-24T11:10:46.649Z,5.65
2017-12-24T11:11:52.885Z,2.80
2017-12-24T11:12:59.094Z,4.32
2017-12-24T11:14:07.290Z,2.00
2017-12-24T11:15:13.586Z,2.90
2017-12-24T11:16:19.796Z,2.40
2017-12-24T11:17:26.066Z,4.95
2017-12-24T11:18:32.395Z,2.30
2017-12-24T11:19:39.531Z,2.42
2017-12-24T11:20:45.810Z,2.60
2017-12-24T11:21:52.127Z,2.40
2017-12-24T11:22:58.458Z,2.42
2017-12-24T11:24:04.750Z,2.78
2017-12-24T11:25:11.063Z,2.20
2017-12-24T11:26:18.290Z,2.45
2017-12-24T11:27:24.729Z,2.10
2017-12-24T11:28:30.932Z,2.28
2017-12-24T11:29:37.228Z,1.98
2017-12-24T11:30:43.534Z,2.40
2017-12-24T11:31:49.827Z,2.22
2017-12-24T11:32:56.902Z,2.20
2017-12-24T11:34:03.239Z,2.08
2017-12-24T11:35:10.554Z,2.20
2017-12-24T11:36:16.909Z,1.77
2017-12-24T11:37:23.166Z,1.75
2017-12-24T11:38:29.594Z,2.22
2017-12-24T11:39:36.059Z,2.35
2017-12-24T11:40:42.358Z,2.00
2017-12-24T11:41:49.495Z,4.70
2017-12-24T11:42:55.956Z,1.80
2017-12-24T11:44:02.279Z,1.83
2017-12-24T11:45:08.640Z,1.80
2017-12-24T11:46:15.945Z,2.03
2017-12-24T11:47:22.235Z,2.30
2017-12-24T11:48:28.511Z,2.15
2017-12-24T11:49:34.837Z,1.62
2017-12-24T11:50:41.104Z,2.33
2017-12-24T11:51:47.411Z,1.62
2017-12-24T11:52:53.640Z,2.33
2017-12-24T11:54:00.007Z,1.92
2017-12-24T11:55:06.311Z,4.30
2017-12-24T11:56:12.752Z,2.17
2017-12-24T11:57:19.019Z,2.10
2017-12-24T11:58:25.364Z,1.70
2017-12-24T11:59:31.722Z,3.28
2017-12-24T12:00:38.051Z,1.83
2017-12-24T12:01:44.212Z,1.70
2017-12-24T12:02:50.563Z,2.05
2017-12-24T12:03:56.912Z,2.20
2017-12-24T12:05:03.165Z,2.10
2017-12-24T12:06:11.526Z,1.85
2017-12-24T12:07:17.815Z,2.37
2017-12-24T12:08:24.151Z,2.12
2017-12-24T12:09:30.369Z,1.95
2017-12-24T12:10:36.632Z,1.60
2017-12-24T12:11:42.896Z,2.30
2017-12-24T12:12:49.142Z,1.77
2017-12-24T12:13:55.430Z,1.70
2017-12-24T12:15:01.726Z,1.75
2017-12-24T12:16:08.044Z,2.67
2017-12-24T12:17:14.325Z,1.87
2017-12-24T12:18:20.555Z,1.87
2017-12-24T12:19:31.900Z,2.03
2017-12-24T12:20:39.108Z,2.50
2017-12-24T12:21:45.390Z,2.28
2017-12-24T12:22:51.676Z,2.10
2017-12-24T12:23:57.969Z,2.45
2017-12-24T12:25:04.283Z,2.28
2017-12-24T12:26:10.541Z,1.87
2017-12-24T12:27:16.758Z,3.17
2017-12-24T12:28:23.086Z,2.05
2017-12-24T12:29:29.342Z,2.15
2017-12-24T12:30:35.683Z,2.03
2017-12-24T12:31:41.915Z,1.95
2017-12-24T12:32:48.166Z,2.30
2017-12-24T12:33:54.516Z,1.35
2017-12-24T12:35:00.791Z,2.30
2017-12-24T12:36:07.080Z,1.85
2017-12-24T12:37:14.836Z,2.12
2017-12-24T12:38:21.085Z,2.08
2017-12-24T12:39:31.419Z,3.05
2017-12-24T12:40:37.688Z,2.10
2017-12-24T12:41:43.946Z,3.65
2017-12-24T12:42:50.227Z,2.60
2017-12-24T12:43:56.488Z,2.50
2017-12-24T12:45:02.780Z,2.10
2017-12-24T12:46:09.097Z,2.00
2017-12-24T12:47:15.347Z,2.60
2017-12-24T12:48:21.595Z,1.90
2017-12-24T12:49:27.883Z,2.53
2017-12-24T12:50:34.187Z,1.80
2017-12-24T12:51:43.588Z,2.00
2017-12-24T12:52:49.832Z,2.00
2017-12-24T12:53:56.150Z,2.00
2017-12-24T12:55:02.504Z,2.10
2017-12-24T12:56:09.399Z,2.12
2017-12-24T12:57:15.788Z,1.65
2017-12-24T12:58:22.156Z,2.22
2017-12-24T12:59:28.419Z,2.08
2017-12-24T13:00:34.691Z,2.05
2017-12-24T13:01:40.928Z,2.25
2017-12-24T13:02:47.220Z,1.60
2017-12-24T13:03:55.118Z,2.10
2017-12-24T13:05:01.559Z,1.80
2017-12-24T13:06:07.911Z,1.70
2017-12-24T13:07:14.180Z,2.10
2017-12-24T13:08:20.573Z,1.55
2017-12-24T13:09:26.877Z,1.87
2017-12-24T13:10:33.184Z,1.87
2017-12-24T13:11:39.433Z,1.65
2017-12-24T13:12:45.746Z,1.60
2017-12-24T13:13:52.064Z,1.73
2017-12-24T13:14:58.318Z,1.80
2017-12-24T13:16:04.588Z,2.85
2017-12-24T13:17:10.840Z,1.70
2017-12-24T13:18:17.090Z,1.60
2017-12-24T13:19:23.427Z,1.58
2017-12-24T13:20:29.938Z,2.72
2017-12-24T13:21:36.389Z,1.65
2017-12-24T13:22:42.665Z,1.87
2017-12-24T13:23:48.917Z,2.05
2017-12-24T13:24:55.267Z,1.65
2017-12-24T13:26:01.708Z,1.52
2017-12-24T13:27:07.959Z,1.55
2017-12-24T13:28:14.228Z,1.55
2017-12-24T13:29:20.478Z,1.95
2017-12-24T13:30:26.745Z,1.90
2017-12-24T13:31:33.067Z,1.50
2017-12-24T13:32:39.643Z,1.55
2017-12-24T13:33:46.835Z,2.72
2017-12-24T13:34:53.152Z,2.05
2017-12-24T13:35:59.447Z,1.58
2017-12-24T13:37:05.753Z,4.22
2017-12-24T13:38:12.027Z,1.95
2017-12-24T13:39:18.377Z,1.98
2017-12-24T13:40:24.705Z,1.70
2017-12-24T13:41:30.989Z,1.60
2017-12-24T13:42:37.300Z,2.10
2017-12-24T13:43:43.612Z,1.45
2017-12-24T13:44:50.048Z,2.62
2017-12-24T13:45:56.300Z,2.10
2017-12-24T13:47:02.624Z,4.15
2017-12-24T13:48:09.024Z,2.20
2017-12-24T13:49:15.263Z,2.33
2017-12-24T13:50:21.607Z,1.60
2017-12-24T13:51:27.953Z,2.05
2017-12-24T13:52:34.254Z,2.62
2017-12-24T13:53:40.496Z,1.83
2017-12-24T13:54:46.906Z,1.85
2017-12-24T13:55:53.191Z,2.15
2017-12-24T13:56:59.449Z,2.35
2017-12-24T13:58:05.681Z,3.37
2017-12-24T13:59:11.945Z,5.30
2017-12-24T14:00:19.295Z,6.35
2017-12-24T14:01:25.541Z,5.10
2017-12-24T14:02:31.760Z,6.30
2017-12-24T14:03:37.987Z,7.78
2017-12-24T14:04:44.420Z,7.30
2017-12-24T14:05:50.640Z,3.85
2017-12-24T14:06:56.951Z,4.25
2017-12-24T14:08:03.170Z,3.45
2017-12-24T14:09:09.402Z,2.03
2017-12-24T14:10:15.832Z,1.98
2017-12-24T14:11:21.765Z,1.62
2017-12-24T14:12:28.088Z,1.60
2017-12-24T14:13:34.312Z,3.08
2017-12-24T14:14:41.284Z,1.65
2017-12-24T14:15:47.626Z,2.20
2017-12-24T14:16:53.863Z,3.08
2017-12-24T14:18:00.109Z,2.03
2017-12-24T14:19:06.309Z,1.90
2017-12-24T14:20:12.592Z,1.83
2017-12-24T14:21:18.886Z,1.90
2017-12-24T14:22:25.096Z,2.20
2017-12-24T14:23:31.340Z,2.00
2017-12-24T14:24:37.591Z,1.70
2017-12-24T14:25:43.938Z,1.95
2017-12-24T14:26:50.238Z,2.40
2017-12-24T14:27:56.473Z,2.20
2017-12-24T14:29:02.690Z,2.08
2017-12-24T14:30:08.895Z,2.05
2017-12-24T14:31:15.136Z,2.28
2017-12-24T14:32:21.438Z,2.30
2017-12-24T14:33:27.661Z,3.20
2017-12-24T14:34:34.433Z,2.53
2017-12-24T14:35:40.657Z,2.95
2017-12-24T14:36:46.847Z,5.03
2017-12-24T14:37:53.017Z,7.25
2017-12-24T14:38:59.239Z,3.45
2017-12-24T14:40:06.288Z,3.87
2017-12-24T14:41:12.523Z,3.47